NVA1003 SAZS-SABE
Flight info
| Callsign | NVA1003 |
|---|---|
| Flight time | 1h 53m |
| Altitude | 37000 |
| Route | LIMAY1G LIMAY UW26 EGUNO UZ109 ISMIL UT655 ASADA ASADA8Q |
| Aircraft | A319/M-SDE3FGHIRWY/LB1 |
Departure
| Time | 2026-04-21 11:33 |
|---|---|
| Airport | Teniente Luis Candelaria International Airport (SAZS) |
Arrival
| Time | 2026-04-21 13:26 |
|---|---|
| Airport | Aeroparque Jorge Newbery (SABE) |
| Time | Latitude | Longitude | Altitude | Speed | Heading |
|---|---|---|---|---|---|
| 2026-04-21 11:07 | -41.14696 | -71.16094 | 2780 ft | 0 kts | 25° |
| 2026-04-21 11:26 | -41.14698 | -71.16095 | 2780 ft | 1 kts | 24° |
| 2026-04-21 11:26 | -41.14708 | -71.16109 | 2780 ft | 2 kts | 68° |
| 2026-04-21 11:26 | -41.14715 | -71.16128 | 2780 ft | 2 kts | 60° |
| 2026-04-21 11:26 | -41.14722 | -71.16145 | 2780 ft | 2 kts | 62° |
| 2026-04-21 11:27 | -41.14729 | -71.16164 | 2780 ft | 2 kts | 62° |
| 2026-04-21 11:27 | -41.14737 | -71.16181 | 2780 ft | 2 kts | 62° |
| 2026-04-21 11:27 | -41.14743 | -71.16200 | 2780 ft | 2 kts | 62° |
| 2026-04-21 11:27 | -41.14751 | -71.16217 | 2780 ft | 2 kts | 62° |
| 2026-04-21 11:28 | -41.14758 | -71.16235 | 2780 ft | 2 kts | 62° |
| 2026-04-21 11:28 | -41.14765 | -71.16253 | 2780 ft | 2 kts | 70° |
| 2026-04-21 11:28 | -41.14767 | -71.16273 | 2780 ft | 2 kts | 94° |
| 2026-04-21 11:28 | -41.14764 | -71.16293 | 2780 ft | 2 kts | 115° |
| 2026-04-21 11:29 | -41.14757 | -71.16310 | 2780 ft | 2 kts | 113° |
| 2026-04-21 11:29 | -41.14756 | -71.16314 | 2780 ft | 0 kts | 113° |
| 2026-04-21 11:31 | -41.14756 | -71.16313 | 2780 ft | 0 kts | 113° |
| 2026-04-21 11:31 | -41.14801 | -71.16288 | 2780 ft | 9 kts | 196° |
| 2026-04-21 11:31 | -41.14868 | -71.16329 | 2780 ft | 11 kts | 215° |
| 2026-04-21 11:31 | -41.14885 | -71.16432 | 2780 ft | 24 kts | 314° |
| 2026-04-21 11:32 | -41.14780 | -71.16722 | 2780 ft | 25 kts | 294° |
| 2026-04-21 11:32 | -41.14733 | -71.16866 | 2780 ft | 23 kts | 293° |
| 2026-04-21 11:32 | -41.14645 | -71.17017 | 2780 ft | 16 kts | 296° |
| 2026-04-21 11:32 | -41.14679 | -71.17011 | 2780 ft | 9 kts | 114° |
| 2026-04-21 11:33 | -41.14717 | -71.16908 | 2780 ft | 26 kts | 116° |
| 2026-04-21 11:33 | -41.14908 | -71.16374 | 2781 ft | 98 kts | 113° |
| 2026-04-21 11:33 | -41.15293 | -71.15250 | 2783 ft | 159 kts | 114° |
| 2026-04-21 11:33 | -41.15770 | -71.13931 | 3498 ft | 152 kts | 119° |
| 2026-04-21 11:34 | -41.16316 | -71.12640 | 3981 ft | 166 kts | 120° |
| 2026-04-21 11:34 | -41.16846 | -71.11218 | 4505 ft | 171 kts | 115° |
| 2026-04-21 11:34 | -41.17322 | -71.09737 | 5059 ft | 173 kts | 114° |
| 2026-04-21 11:34 | -41.17801 | -71.08227 | 5620 ft | 176 kts | 112° |
| 2026-04-21 11:35 | -41.18195 | -71.06578 | 5984 ft | 194 kts | 100° |
| 2026-04-21 11:35 | -41.18024 | -71.04681 | 6365 ft | 214 kts | 64° |
| 2026-04-21 11:35 | -41.16991 | -71.03183 | 6934 ft | 223 kts | 30° |
| 2026-04-21 11:35 | -41.15525 | -71.02344 | 7534 ft | 230 kts | 18° |
| 2026-04-21 11:36 | -41.13982 | -71.01696 | 8174 ft | 234 kts | 17° |
| 2026-04-21 11:36 | -41.12392 | -71.01024 | 8852 ft | 236 kts | 18° |
| 2026-04-21 11:36 | -41.10797 | -71.00304 | 9522 ft | 239 kts | 19° |
| 2026-04-21 11:36 | -41.09177 | -70.99539 | 10180 ft | 242 kts | 19° |
| 2026-04-21 11:37 | -41.07552 | -70.98753 | 10822 ft | 244 kts | 20° |
| 2026-04-21 11:37 | -41.05926 | -70.97958 | 11446 ft | 247 kts | 20° |
| 2026-04-21 11:37 | -41.04269 | -70.97147 | 12065 ft | 250 kts | 21° |
| 2026-04-21 11:37 | -41.02620 | -70.96304 | 12666 ft | 252 kts | 26° |
| 2026-04-21 11:38 | -41.01070 | -70.95115 | 13261 ft | 252 kts | 39° |
| 2026-04-21 11:38 | -40.99748 | -70.93531 | 13867 ft | 251 kts | 51° |
| 2026-04-21 11:38 | -40.98660 | -70.91674 | 14484 ft | 250 kts | 56° |
| 2026-04-21 11:38 | -40.97534 | -70.89873 | 15087 ft | 252 kts | 49° |
| 2026-04-21 11:39 | -40.96262 | -70.88200 | 15704 ft | 251 kts | 46° |
| 2026-04-21 11:39 | -40.94955 | -70.86571 | 16300 ft | 251 kts | 45° |
| 2026-04-21 11:39 | -40.93657 | -70.84980 | 16823 ft | 252 kts | 45° |
| 2026-04-21 11:39 | -40.92323 | -70.83355 | 17341 ft | 254 kts | 45° |
| 2026-04-21 11:40 | -40.90998 | -70.81744 | 17841 ft | 255 kts | 45° |
| 2026-04-21 11:40 | -40.89673 | -70.80136 | 18327 ft | 257 kts | 45° |
| 2026-04-21 11:40 | -40.88307 | -70.78497 | 18809 ft | 258 kts | 45° |
| 2026-04-21 11:40 | -40.86939 | -70.76859 | 19263 ft | 260 kts | 45° |
| 2026-04-21 11:41 | -40.85585 | -70.75231 | 19694 ft | 263 kts | 45° |
| 2026-04-21 11:41 | -40.84197 | -70.73556 | 20121 ft | 265 kts | 46° |
| 2026-04-21 11:41 | -40.82791 | -70.71858 | 20538 ft | 268 kts | 46° |
| 2026-04-21 11:41 | -40.81387 | -70.70161 | 20938 ft | 270 kts | 46° |
| 2026-04-21 11:42 | -40.79952 | -70.68429 | 21333 ft | 273 kts | 46° |
| 2026-04-21 11:42 | -40.78542 | -70.66727 | 21708 ft | 275 kts | 47° |
| 2026-04-21 11:42 | -40.77091 | -70.64976 | 22079 ft | 278 kts | 47° |
| 2026-04-21 11:42 | -40.75631 | -70.63215 | 22440 ft | 281 kts | 47° |
| 2026-04-21 11:43 | -40.74174 | -70.61352 | 22799 ft | 282 kts | 51° |
| 2026-04-21 11:43 | -40.72812 | -70.59422 | 23144 ft | 284 kts | 52° |
| 2026-04-21 11:43 | -40.71439 | -70.57455 | 23479 ft | 287 kts | 53° |
| 2026-04-21 11:43 | -40.70036 | -70.55442 | 23812 ft | 290 kts | 53° |
| 2026-04-21 11:44 | -40.68654 | -70.53464 | 24129 ft | 293 kts | 53° |
| 2026-04-21 11:44 | -40.67216 | -70.51407 | 24449 ft | 296 kts | 53° |
| 2026-04-21 11:44 | -40.65791 | -70.49373 | 24754 ft | 299 kts | 53° |
| 2026-04-21 11:44 | -40.64326 | -70.47284 | 25059 ft | 302 kts | 53° |
| 2026-04-21 11:45 | -40.62868 | -70.45207 | 25354 ft | 305 kts | 53° |
| 2026-04-21 11:45 | -40.61391 | -70.43103 | 25644 ft | 307 kts | 54° |
| 2026-04-21 11:45 | -40.59967 | -70.40932 | 25927 ft | 308 kts | 58° |
| 2026-04-21 11:45 | -40.58628 | -70.38635 | 26208 ft | 310 kts | 59° |
| 2026-04-21 11:46 | -40.57321 | -70.36337 | 26476 ft | 313 kts | 60° |
| 2026-04-21 11:46 | -40.55986 | -70.33985 | 26744 ft | 316 kts | 59° |
| 2026-04-21 11:46 | -40.54649 | -70.31624 | 27014 ft | 318 kts | 59° |
| 2026-04-21 11:46 | -40.53310 | -70.29264 | 27295 ft | 320 kts | 59° |
| 2026-04-21 11:47 | -40.51939 | -70.26854 | 27555 ft | 323 kts | 59° |
| 2026-04-21 11:47 | -40.50562 | -70.24438 | 27801 ft | 326 kts | 59° |
| 2026-04-21 11:47 | -40.49157 | -70.21979 | 28048 ft | 329 kts | 59° |
| 2026-04-21 11:47 | -40.47757 | -70.19531 | 28289 ft | 332 kts | 59° |
| 2026-04-21 11:48 | -40.46360 | -70.17092 | 28523 ft | 334 kts | 59° |
| 2026-04-21 11:48 | -40.44911 | -70.14564 | 28761 ft | 337 kts | 59° |
| 2026-04-21 11:48 | -40.43481 | -70.12073 | 28991 ft | 340 kts | 59° |
| 2026-04-21 11:48 | -40.42013 | -70.09515 | 29221 ft | 343 kts | 59° |
| 2026-04-21 11:49 | -40.40561 | -70.06990 | 29442 ft | 345 kts | 59° |
| 2026-04-21 11:49 | -40.39068 | -70.04394 | 29665 ft | 348 kts | 59° |
| 2026-04-21 11:49 | -40.37589 | -70.01826 | 29880 ft | 350 kts | 59° |
| 2026-04-21 11:49 | -40.36089 | -69.99223 | 30092 ft | 353 kts | 59° |
| 2026-04-21 11:50 | -40.34572 | -69.96594 | 30301 ft | 356 kts | 59° |
| 2026-04-21 11:50 | -40.33046 | -69.93951 | 30506 ft | 358 kts | 59° |
| 2026-04-21 11:50 | -40.31499 | -69.91273 | 30709 ft | 361 kts | 59° |
| 2026-04-21 11:50 | -40.29973 | -69.88634 | 30905 ft | 363 kts | 59° |
| 2026-04-21 11:51 | -40.28414 | -69.85941 | 31099 ft | 366 kts | 58° |
| 2026-04-21 11:51 | -40.26836 | -69.83217 | 31292 ft | 368 kts | 58° |
| 2026-04-21 11:51 | -40.25232 | -69.80450 | 31486 ft | 370 kts | 58° |
| 2026-04-21 11:51 | -40.23653 | -69.77731 | 31670 ft | 373 kts | 58° |
| 2026-04-21 11:52 | -40.22057 | -69.74983 | 31853 ft | 375 kts | 58° |
| 2026-04-21 11:52 | -40.20443 | -69.72205 | 32034 ft | 377 kts | 58° |
| 2026-04-21 11:52 | -40.18808 | -69.69396 | 32215 ft | 380 kts | 58° |
| 2026-04-21 11:52 | -40.17185 | -69.66608 | 32389 ft | 382 kts | 58° |
| 2026-04-21 11:53 | -40.15523 | -69.63756 | 32549 ft | 385 kts | 58° |
| 2026-04-21 11:53 | -40.13869 | -69.60922 | 32715 ft | 387 kts | 57° |
| 2026-04-21 11:53 | -40.12218 | -69.58096 | 32886 ft | 389 kts | 57° |
| 2026-04-21 11:53 | -40.10535 | -69.55216 | 33058 ft | 391 kts | 57° |
| 2026-04-21 11:54 | -40.08850 | -69.52337 | 33226 ft | 393 kts | 57° |
| 2026-04-21 11:54 | -40.07159 | -69.49451 | 33391 ft | 395 kts | 57° |
| 2026-04-21 11:54 | -40.05440 | -69.46518 | 33556 ft | 397 kts | 57° |
| 2026-04-21 11:54 | -40.03743 | -69.43626 | 33717 ft | 399 kts | 57° |
| 2026-04-21 11:55 | -40.02021 | -69.40693 | 33877 ft | 401 kts | 57° |
| 2026-04-21 11:55 | -40.00256 | -69.37691 | 34039 ft | 403 kts | 57° |
| 2026-04-21 11:55 | -39.98531 | -69.34760 | 34203 ft | 405 kts | 56° |
| 2026-04-21 11:55 | -39.96780 | -69.31779 | 34368 ft | 406 kts | 56° |
| 2026-04-21 11:56 | -39.95032 | -69.28803 | 34534 ft | 407 kts | 56° |
| 2026-04-21 11:56 | -39.93257 | -69.25787 | 34702 ft | 409 kts | 56° |
| 2026-04-21 11:56 | -39.91515 | -69.22832 | 34863 ft | 410 kts | 56° |
| 2026-04-21 11:56 | -39.89725 | -69.19802 | 35015 ft | 411 kts | 56° |
| 2026-04-21 11:57 | -39.87934 | -69.16794 | 35139 ft | 413 kts | 56° |
| 2026-04-21 11:57 | -39.86120 | -69.13757 | 35264 ft | 414 kts | 56° |
| 2026-04-21 11:57 | -39.84328 | -69.10754 | 35391 ft | 415 kts | 56° |
| 2026-04-21 11:57 | -39.82507 | -69.07702 | 35515 ft | 417 kts | 56° |
| 2026-04-21 11:58 | -39.80716 | -69.04697 | 35631 ft | 418 kts | 57° |
| 2026-04-21 11:58 | -39.78882 | -69.01620 | 35748 ft | 419 kts | 57° |
| 2026-04-21 11:58 | -39.77053 | -68.98550 | 35868 ft | 420 kts | 57° |
| 2026-04-21 11:58 | -39.75244 | -68.95516 | 35988 ft | 421 kts | 58° |
| 2026-04-21 11:59 | -39.73386 | -68.92401 | 36112 ft | 422 kts | 58° |
| 2026-04-21 11:59 | -39.71581 | -68.89378 | 36232 ft | 423 kts | 58° |
| 2026-04-21 11:59 | -39.69743 | -68.86301 | 36353 ft | 424 kts | 59° |
| 2026-04-21 11:59 | -39.67882 | -68.83183 | 36464 ft | 425 kts | 59° |
| 2026-04-21 12:00 | -39.64187 | -68.77003 | 36653 ft | 427 kts | 58° |
| 2026-04-21 12:00 | -39.60470 | -68.70807 | 36836 ft | 429 kts | 58° |
| 2026-04-21 12:01 | -39.56711 | -68.64555 | 37011 ft | 432 kts | 58° |
| 2026-04-21 12:01 | -39.52926 | -68.58273 | 37178 ft | 434 kts | 58° |
| 2026-04-21 12:02 | -39.47213 | -68.48815 | 37417 ft | 437 kts | 58° |
| 2026-04-21 12:03 | -39.43373 | -68.42469 | 37316 ft | 446 kts | 58° |
| 2026-04-21 12:03 | -39.39443 | -68.35989 | 37210 ft | 455 kts | 58° |
| 2026-04-21 12:04 | -39.35436 | -68.29388 | 37208 ft | 461 kts | 57° |
| 2026-04-21 12:04 | -39.31359 | -68.22679 | 37207 ft | 468 kts | 57° |
| 2026-04-21 12:05 | -39.27246 | -68.15926 | 37208 ft | 474 kts | 57° |
| 2026-04-21 12:05 | -39.23048 | -68.09060 | 37207 ft | 478 kts | 57° |
| 2026-04-21 12:06 | -39.18879 | -68.02262 | 37207 ft | 478 kts | 57° |
| 2026-04-21 12:06 | -39.14646 | -67.95377 | 37207 ft | 478 kts | 57° |
| 2026-04-21 12:07 | -39.10472 | -67.88599 | 37207 ft | 478 kts | 57° |
| 2026-04-21 12:07 | -39.06258 | -67.81770 | 37207 ft | 478 kts | 57° |
| 2026-04-21 12:08 | -39.02052 | -67.74966 | 37207 ft | 479 kts | 57° |
| 2026-04-21 12:08 | -38.97810 | -67.68124 | 37207 ft | 480 kts | 57° |
| 2026-04-21 12:09 | -38.93551 | -67.61269 | 37207 ft | 481 kts | 57° |
| 2026-04-21 12:09 | -38.89290 | -67.54427 | 37203 ft | 481 kts | 57° |
| 2026-04-21 12:10 | -38.85009 | -67.47616 | 37206 ft | 482 kts | 57° |
| 2026-04-21 12:10 | -38.80740 | -67.40815 | 37206 ft | 482 kts | 58° |
| 2026-04-21 12:11 | -38.76460 | -67.33988 | 37206 ft | 482 kts | 57° |
| 2026-04-21 12:11 | -38.72170 | -67.27129 | 37207 ft | 482 kts | 57° |
| 2026-04-21 12:12 | -38.67900 | -67.20326 | 37207 ft | 482 kts | 57° |
| 2026-04-21 12:12 | -38.63608 | -67.13508 | 37208 ft | 479 kts | 56° |
| 2026-04-21 12:13 | -38.59367 | -67.06786 | 37208 ft | 475 kts | 56° |
| 2026-04-21 12:13 | -38.55157 | -67.00138 | 37208 ft | 470 kts | 55° |
| 2026-04-21 12:14 | -38.50993 | -66.93576 | 37207 ft | 466 kts | 54° |
| 2026-04-21 12:14 | -38.46850 | -66.87071 | 37207 ft | 465 kts | 54° |
| 2026-04-21 12:15 | -38.42685 | -66.80541 | 37207 ft | 465 kts | 54° |
| 2026-04-21 12:15 | -38.38515 | -66.74015 | 37207 ft | 465 kts | 54° |
| 2026-04-21 12:16 | -38.34505 | -66.67384 | 37207 ft | 463 kts | 59° |
| 2026-04-21 12:16 | -38.31079 | -66.60252 | 37207 ft | 459 kts | 66° |
| 2026-04-21 12:17 | -38.28032 | -66.52982 | 37207 ft | 459 kts | 66° |
| 2026-04-21 12:17 | -38.24968 | -66.45679 | 37207 ft | 459 kts | 66° |
| 2026-04-21 12:18 | -38.21890 | -66.38387 | 37207 ft | 459 kts | 66° |
| 2026-04-21 12:18 | -38.18821 | -66.31134 | 37207 ft | 459 kts | 66° |
| 2026-04-21 12:19 | -38.15717 | -66.23806 | 37207 ft | 459 kts | 65° |
| 2026-04-21 12:19 | -38.12636 | -66.16562 | 37207 ft | 459 kts | 65° |
| 2026-04-21 12:20 | -38.09549 | -66.09326 | 37207 ft | 459 kts | 65° |
| 2026-04-21 12:20 | -38.06436 | -66.02051 | 37207 ft | 459 kts | 65° |
| 2026-04-21 12:21 | -38.03311 | -65.94764 | 37207 ft | 459 kts | 65° |
| 2026-04-21 12:21 | -38.00217 | -65.87565 | 37207 ft | 459 kts | 65° |
| 2026-04-21 12:22 | -37.97095 | -65.80318 | 37207 ft | 459 kts | 65° |
| 2026-04-21 12:22 | -37.93985 | -65.73116 | 37207 ft | 459 kts | 65° |
| 2026-04-21 12:23 | -37.90850 | -65.65870 | 37205 ft | 459 kts | 65° |
| 2026-04-21 12:23 | -37.87722 | -65.58697 | 37205 ft | 460 kts | 65° |
| 2026-04-21 12:24 | -37.84564 | -65.51497 | 37203 ft | 460 kts | 65° |
| 2026-04-21 12:24 | -37.81411 | -65.44283 | 37197 ft | 460 kts | 65° |
| 2026-04-21 12:25 | -37.78258 | -65.37071 | 37190 ft | 460 kts | 65° |
| 2026-04-21 12:25 | -37.75113 | -65.29869 | 37185 ft | 460 kts | 65° |
| 2026-04-21 12:26 | -37.71967 | -65.22675 | 37183 ft | 460 kts | 65° |
| 2026-04-21 12:26 | -37.68822 | -65.15514 | 37182 ft | 460 kts | 65° |
| 2026-04-21 12:27 | -37.65651 | -65.08317 | 37182 ft | 460 kts | 65° |
| 2026-04-21 12:27 | -37.62510 | -65.01199 | 37182 ft | 460 kts | 64° |
| 2026-04-21 12:28 | -37.59347 | -64.94029 | 37182 ft | 460 kts | 63° |
| 2026-04-21 12:28 | -37.56192 | -64.86911 | 37183 ft | 457 kts | 62° |
| 2026-04-21 12:29 | -37.53043 | -64.79833 | 37183 ft | 453 kts | 62° |
| 2026-04-21 12:29 | -37.49918 | -64.72834 | 37182 ft | 452 kts | 62° |
| 2026-04-21 12:30 | -37.46804 | -64.65872 | 37182 ft | 452 kts | 62° |
| 2026-04-21 12:30 | -37.43690 | -64.58915 | 37182 ft | 452 kts | 62° |
| 2026-04-21 12:31 | -37.40011 | -64.50716 | 37182 ft | 452 kts | 62° |
| 2026-04-21 12:31 | -37.37412 | -64.44937 | 37182 ft | 452 kts | 62° |
| 2026-04-21 12:32 | -37.34254 | -64.37930 | 37182 ft | 452 kts | 62° |
| 2026-04-21 12:32 | -37.31124 | -64.31028 | 37182 ft | 452 kts | 61° |
| 2026-04-21 12:33 | -37.27938 | -64.24033 | 37182 ft | 452 kts | 61° |
| 2026-04-21 12:33 | -37.24760 | -64.17090 | 37182 ft | 452 kts | 61° |
| 2026-04-21 12:34 | -37.21608 | -64.10223 | 37182 ft | 452 kts | 61° |
| 2026-04-21 12:34 | -37.18415 | -64.03284 | 37182 ft | 452 kts | 61° |
| 2026-04-21 12:35 | -37.15227 | -63.96370 | 37182 ft | 452 kts | 61° |
| 2026-04-21 12:35 | -37.12033 | -63.89459 | 37182 ft | 452 kts | 61° |
| 2026-04-21 12:36 | -37.08837 | -63.82557 | 37181 ft | 454 kts | 60° |
| 2026-04-21 12:36 | -37.05612 | -63.75602 | 37181 ft | 458 kts | 60° |
| 2026-04-21 12:37 | -37.02340 | -63.68560 | 37181 ft | 462 kts | 59° |
| 2026-04-21 12:37 | -36.99051 | -63.61499 | 37182 ft | 465 kts | 59° |
| 2026-04-21 12:38 | -36.95710 | -63.54341 | 37182 ft | 466 kts | 58° |
| 2026-04-21 12:38 | -36.92402 | -63.47283 | 37204 ft | 466 kts | 58° |
| 2026-04-21 12:39 | -36.89082 | -63.40226 | 37223 ft | 466 kts | 58° |
| 2026-04-21 12:39 | -36.85710 | -63.33120 | 37229 ft | 466 kts | 57° |
| 2026-04-21 12:40 | -36.82382 | -63.26058 | 37234 ft | 466 kts | 57° |
| 2026-04-21 12:40 | -36.79029 | -63.18950 | 37235 ft | 466 kts | 57° |
| 2026-04-21 12:41 | -36.75688 | -63.11887 | 37232 ft | 466 kts | 57° |
| 2026-04-21 12:41 | -36.72360 | -63.04861 | 37222 ft | 466 kts | 57° |
| 2026-04-21 12:42 | -36.69016 | -62.97817 | 37208 ft | 465 kts | 57° |
| 2026-04-21 12:42 | -36.65662 | -62.90770 | 37195 ft | 464 kts | 56° |
| 2026-04-21 12:43 | -36.62344 | -62.83818 | 37187 ft | 464 kts | 56° |
| 2026-04-21 12:43 | -36.58978 | -62.76788 | 37184 ft | 464 kts | 56° |
| 2026-04-21 12:44 | -36.55641 | -62.69827 | 37182 ft | 464 kts | 56° |
| 2026-04-21 12:44 | -36.52285 | -62.62838 | 37182 ft | 464 kts | 56° |
| 2026-04-21 12:45 | -36.48915 | -62.55836 | 37182 ft | 464 kts | 56° |
| 2026-04-21 12:45 | -36.45575 | -62.48908 | 37182 ft | 464 kts | 56° |
| 2026-04-21 12:46 | -36.42202 | -62.41928 | 37182 ft | 464 kts | 56° |
| 2026-04-21 12:46 | -36.38842 | -62.34987 | 37182 ft | 464 kts | 56° |
| 2026-04-21 12:47 | -36.35462 | -62.27993 | 37182 ft | 464 kts | 56° |
| 2026-04-21 12:47 | -36.32099 | -62.21056 | 37182 ft | 464 kts | 56° |
| 2026-04-21 12:48 | -36.28689 | -62.14055 | 37182 ft | 464 kts | 55° |
| 2026-04-21 12:48 | -36.25320 | -62.07154 | 37182 ft | 464 kts | 55° |
| 2026-04-21 12:49 | -36.21925 | -62.00217 | 37182 ft | 464 kts | 55° |
| 2026-04-21 12:49 | -36.18519 | -61.93276 | 37182 ft | 464 kts | 55° |
| 2026-04-21 12:50 | -36.15131 | -61.86388 | 37182 ft | 464 kts | 55° |
| 2026-04-21 12:50 | -36.11715 | -61.79454 | 37182 ft | 464 kts | 56° |
| 2026-04-21 12:51 | -36.08331 | -61.72561 | 37182 ft | 464 kts | 56° |
| 2026-04-21 12:51 | -36.04923 | -61.65631 | 37182 ft | 464 kts | 56° |
| 2026-04-21 12:52 | -36.01496 | -61.58688 | 37182 ft | 464 kts | 56° |
| 2026-04-21 12:52 | -35.98097 | -61.51823 | 37182 ft | 464 kts | 56° |
| 2026-04-21 12:53 | -35.94675 | -61.44926 | 37182 ft | 464 kts | 56° |
| 2026-04-21 12:53 | -35.91239 | -61.38016 | 36996 ft | 464 kts | 55° |
| 2026-04-21 12:53 | -35.89552 | -61.34629 | 36746 ft | 460 kts | 54° |
| 2026-04-21 12:54 | -35.87839 | -61.31199 | 36489 ft | 457 kts | 55° |
| 2026-04-21 12:54 | -35.86157 | -61.27801 | 36234 ft | 454 kts | 55° |
| 2026-04-21 12:54 | -35.84500 | -61.24443 | 35981 ft | 452 kts | 55° |
| 2026-04-21 12:54 | -35.82847 | -61.21095 | 35728 ft | 452 kts | 55° |
| 2026-04-21 12:55 | -35.81179 | -61.17723 | 35473 ft | 453 kts | 55° |
| 2026-04-21 12:55 | -35.79511 | -61.14352 | 35218 ft | 453 kts | 55° |
| 2026-04-21 12:55 | -35.77842 | -61.10985 | 34964 ft | 453 kts | 55° |
| 2026-04-21 12:55 | -35.76188 | -61.07652 | 34712 ft | 454 kts | 55° |
| 2026-04-21 12:56 | -35.74512 | -61.04279 | 34458 ft | 454 kts | 55° |
| 2026-04-21 12:56 | -35.72830 | -61.00898 | 34202 ft | 455 kts | 55° |
| 2026-04-21 12:56 | -35.71151 | -60.97526 | 33948 ft | 455 kts | 55° |
| 2026-04-21 12:56 | -35.69474 | -60.94161 | 33695 ft | 456 kts | 55° |
| 2026-04-21 12:57 | -35.67790 | -60.90786 | 33440 ft | 456 kts | 55° |
| 2026-04-21 12:57 | -35.66146 | -60.87496 | 33193 ft | 457 kts | 55° |
| 2026-04-21 12:57 | -35.64469 | -60.84140 | 32941 ft | 457 kts | 55° |
| 2026-04-21 12:57 | -35.62743 | -60.80691 | 32681 ft | 458 kts | 55° |
| 2026-04-21 12:58 | -35.61059 | -60.77328 | 32429 ft | 458 kts | 55° |
| 2026-04-21 12:58 | -35.59371 | -60.73961 | 32176 ft | 459 kts | 55° |
| 2026-04-21 12:58 | -35.57664 | -60.70560 | 31921 ft | 459 kts | 55° |
| 2026-04-21 12:58 | -35.55957 | -60.67160 | 31666 ft | 460 kts | 55° |
| 2026-04-21 12:59 | -35.54235 | -60.63735 | 31410 ft | 460 kts | 55° |
| 2026-04-21 12:59 | -35.52538 | -60.60363 | 31158 ft | 461 kts | 56° |
| 2026-04-21 12:59 | -35.50828 | -60.56969 | 30904 ft | 461 kts | 56° |
| 2026-04-21 12:59 | -35.49101 | -60.53543 | 30647 ft | 461 kts | 56° |
| 2026-04-21 13:00 | -35.47406 | -60.50185 | 30396 ft | 462 kts | 56° |
| 2026-04-21 13:00 | -35.45663 | -60.46737 | 30138 ft | 462 kts | 56° |
| 2026-04-21 13:00 | -35.43950 | -60.43349 | 29885 ft | 463 kts | 56° |
| 2026-04-21 13:00 | -35.42234 | -60.39959 | 29632 ft | 463 kts | 56° |
| 2026-04-21 13:01 | -35.40491 | -60.36518 | 29375 ft | 463 kts | 56° |
| 2026-04-21 13:01 | -35.38779 | -60.33139 | 29122 ft | 464 kts | 55° |
| 2026-04-21 13:01 | -35.37047 | -60.29711 | 28867 ft | 464 kts | 56° |
| 2026-04-21 13:01 | -35.35324 | -60.26306 | 28613 ft | 464 kts | 56° |
| 2026-04-21 13:02 | -35.33599 | -60.22905 | 28360 ft | 465 kts | 56° |
| 2026-04-21 13:02 | -35.31865 | -60.19496 | 28105 ft | 465 kts | 56° |
| 2026-04-21 13:02 | -35.28374 | -60.12647 | 27595 ft | 466 kts | 56° |
| 2026-04-21 13:03 | -35.26646 | -60.09262 | 27343 ft | 466 kts | 56° |
| 2026-04-21 13:03 | -35.24916 | -60.05880 | 27091 ft | 466 kts | 56° |
| 2026-04-21 13:03 | -35.23171 | -60.02470 | 26838 ft | 467 kts | 56° |
| 2026-04-21 13:03 | -35.21411 | -59.99035 | 26574 ft | 466 kts | 56° |
| 2026-04-21 13:04 | -35.19662 | -59.95623 | 26208 ft | 463 kts | 56° |
| 2026-04-21 13:04 | -35.17968 | -59.92323 | 25909 ft | 460 kts | 56° |
| 2026-04-21 13:04 | -35.16233 | -59.88949 | 25472 ft | 458 kts | 56° |
| 2026-04-21 13:04 | -35.14542 | -59.85663 | 25002 ft | 454 kts | 56° |
| 2026-04-21 13:05 | -35.12829 | -59.82338 | 24514 ft | 451 kts | 56° |
| 2026-04-21 13:05 | -35.11125 | -59.79035 | 24024 ft | 447 kts | 56° |
| 2026-04-21 13:05 | -35.09464 | -59.75819 | 23544 ft | 443 kts | 56° |
| 2026-04-21 13:05 | -35.07816 | -59.72632 | 23066 ft | 439 kts | 56° |
| 2026-04-21 13:06 | -35.06162 | -59.69432 | 22588 ft | 435 kts | 56° |
| 2026-04-21 13:06 | -35.04535 | -59.66266 | 22110 ft | 431 kts | 58° |
| 2026-04-21 13:06 | -35.03151 | -59.63018 | 21606 ft | 429 kts | 65° |
| 2026-04-21 13:06 | -35.02100 | -59.59553 | 21101 ft | 426 kts | 73° |
| 2026-04-21 13:07 | -35.01376 | -59.56030 | 20643 ft | 422 kts | 77° |
| 2026-04-21 13:07 | -35.00751 | -59.52498 | 20193 ft | 417 kts | 77° |
| 2026-04-21 13:07 | -35.00149 | -59.49025 | 19753 ft | 413 kts | 77° |
| 2026-04-21 13:07 | -34.99544 | -59.45580 | 19347 ft | 408 kts | 77° |
| 2026-04-21 13:08 | -34.98942 | -59.42196 | 18929 ft | 404 kts | 77° |
| 2026-04-21 13:08 | -34.98332 | -59.38809 | 18498 ft | 401 kts | 77° |
| 2026-04-21 13:08 | -34.97722 | -59.35442 | 18071 ft | 397 kts | 76° |
| 2026-04-21 13:08 | -34.97121 | -59.32132 | 17648 ft | 394 kts | 76° |
| 2026-04-21 13:09 | -34.96530 | -59.28886 | 17231 ft | 391 kts | 76° |
| 2026-04-21 13:09 | -34.95932 | -59.25610 | 16811 ft | 387 kts | 76° |
| 2026-04-21 13:09 | -34.95331 | -59.22335 | 16389 ft | 384 kts | 76° |
| 2026-04-21 13:09 | -34.94746 | -59.19154 | 15974 ft | 381 kts | 76° |
| 2026-04-21 13:10 | -34.94157 | -59.15960 | 15557 ft | 378 kts | 76° |
| 2026-04-21 13:10 | -34.93583 | -59.12856 | 15147 ft | 375 kts | 76° |
| 2026-04-21 13:10 | -34.93002 | -59.09718 | 14729 ft | 372 kts | 76° |
| 2026-04-21 13:10 | -34.92421 | -59.06583 | 14307 ft | 369 kts | 76° |
| 2026-04-21 13:11 | -34.91861 | -59.03556 | 13895 ft | 367 kts | 76° |
| 2026-04-21 13:11 | -34.91213 | -59.00509 | 13443 ft | 363 kts | 67° |
| 2026-04-21 13:11 | -34.89896 | -58.97887 | 12991 ft | 356 kts | 46° |
| 2026-04-21 13:11 | -34.87932 | -58.96079 | 12549 ft | 350 kts | 26° |
| 2026-04-21 13:12 | -34.85696 | -58.94843 | 12130 ft | 347 kts | 22° |
| 2026-04-21 13:12 | -34.83456 | -58.93694 | 11697 ft | 343 kts | 22° |
| 2026-04-21 13:12 | -34.81273 | -58.92556 | 11281 ft | 338 kts | 22° |
| 2026-04-21 13:12 | -34.79089 | -58.91391 | 10864 ft | 334 kts | 23° |
| 2026-04-21 13:13 | -34.76990 | -58.90257 | 10461 ft | 329 kts | 23° |
| 2026-04-21 13:13 | -34.74931 | -58.89138 | 10339 ft | 315 kts | 23° |
| 2026-04-21 13:13 | -34.72953 | -58.88063 | 10276 ft | 300 kts | 23° |
| 2026-04-21 13:13 | -34.71073 | -58.87043 | 10204 ft | 287 kts | 23° |
| 2026-04-21 13:14 | -34.69306 | -58.86084 | 10140 ft | 274 kts | 23° |
| 2026-04-21 13:14 | -34.67602 | -58.85161 | 10084 ft | 261 kts | 23° |
| 2026-04-21 13:14 | -34.65925 | -58.84253 | 9773 ft | 260 kts | 23° |
| 2026-04-21 13:14 | -34.64260 | -58.83353 | 9477 ft | 258 kts | 23° |
| 2026-04-21 13:15 | -34.62642 | -58.82478 | 9199 ft | 255 kts | 23° |
| 2026-04-21 13:15 | -34.61012 | -58.81599 | 8910 ft | 253 kts | 24° |
| 2026-04-21 13:15 | -34.59391 | -58.80723 | 8614 ft | 252 kts | 24° |
| 2026-04-21 13:15 | -34.57804 | -58.79865 | 8341 ft | 249 kts | 22° |
| 2026-04-21 13:16 | -34.56183 | -58.79180 | 8073 ft | 247 kts | 14° |
| 2026-04-21 13:16 | -34.54476 | -58.78786 | 7803 ft | 244 kts | 7° |
| 2026-04-21 13:16 | -34.52808 | -58.78574 | 7547 ft | 242 kts | 5° |
| 2026-04-21 13:16 | -34.51140 | -58.78392 | 7291 ft | 239 kts | 5° |
| 2026-04-21 13:17 | -34.49468 | -58.78209 | 7034 ft | 237 kts | 5° |
| 2026-04-21 13:17 | -34.47826 | -58.78023 | 6784 ft | 236 kts | 5° |
| 2026-04-21 13:17 | -34.46211 | -58.77836 | 6536 ft | 235 kts | 6° |
| 2026-04-21 13:17 | -34.44568 | -58.77642 | 6284 ft | 234 kts | 6° |
| 2026-04-21 13:18 | -34.42955 | -58.77451 | 6036 ft | 233 kts | 6° |
| 2026-04-21 13:18 | -34.41324 | -58.77258 | 5786 ft | 233 kts | 6° |
| 2026-04-21 13:18 | -34.39722 | -58.77067 | 5540 ft | 232 kts | 6° |
| 2026-04-21 13:18 | -34.38110 | -58.76790 | 5263 ft | 231 kts | 19° |
| 2026-04-21 13:19 | -34.36780 | -58.75785 | 5067 ft | 226 kts | 50° |
| 2026-04-21 13:19 | -34.36042 | -58.74128 | 5043 ft | 222 kts | 78° |
| 2026-04-21 13:19 | -34.36037 | -58.72322 | 4875 ft | 214 kts | 107° |
| 2026-04-21 13:19 | -34.36705 | -58.70758 | 4722 ft | 205 kts | 131° |
| 2026-04-21 13:20 | -34.37673 | -58.69539 | 4582 ft | 200 kts | 136° |
| 2026-04-21 13:20 | -34.38662 | -58.68388 | 4433 ft | 200 kts | 136° |
| 2026-04-21 13:20 | -34.39670 | -58.67195 | 4282 ft | 199 kts | 136° |
| 2026-04-21 13:20 | -34.40649 | -58.66011 | 4134 ft | 199 kts | 135° |
| 2026-04-21 13:21 | -34.41624 | -58.64814 | 3987 ft | 198 kts | 135° |
| 2026-04-21 13:21 | -34.42609 | -58.63614 | 3839 ft | 198 kts | 139° |
| 2026-04-21 13:21 | -34.43696 | -58.62532 | 3722 ft | 197 kts | 140° |
| 2026-04-21 13:21 | -34.44701 | -58.61344 | 3625 ft | 198 kts | 131° |
| 2026-04-21 13:22 | -34.45567 | -58.60052 | 3388 ft | 199 kts | 127° |
| 2026-04-21 13:22 | -34.46398 | -58.58664 | 3121 ft | 199 kts | 125° |
| 2026-04-21 13:22 | -34.47183 | -58.57275 | 2862 ft | 198 kts | 124° |
| 2026-04-21 13:22 | -34.47940 | -58.55909 | 2626 ft | 190 kts | 124° |
| 2026-04-21 13:23 | -34.48663 | -58.54606 | 2337 ft | 174 kts | 124° |
| 2026-04-21 13:23 | -34.49308 | -58.53445 | 2103 ft | 158 kts | 124° |
| 2026-04-21 13:23 | -34.49903 | -58.52375 | 1884 ft | 144 kts | 124° |
| 2026-04-21 13:23 | -34.50453 | -58.51389 | 1696 ft | 138 kts | 124° |
| 2026-04-21 13:24 | -34.50998 | -58.50409 | 1525 ft | 138 kts | 124° |
| 2026-04-21 13:24 | -34.51540 | -58.49437 | 1350 ft | 138 kts | 124° |
| 2026-04-21 13:24 | -34.52080 | -58.48468 | 1174 ft | 137 kts | 124° |
| 2026-04-21 13:24 | -34.52623 | -58.47494 | 995 ft | 137 kts | 123° |
| 2026-04-21 13:25 | -34.53163 | -58.46524 | 816 ft | 137 kts | 123° |
| 2026-04-21 13:25 | -34.53705 | -58.45552 | 634 ft | 136 kts | 123° |
| 2026-04-21 13:25 | -34.54236 | -58.44601 | 456 ft | 136 kts | 123° |
| 2026-04-21 13:25 | -34.54778 | -58.43639 | 242 ft | 136 kts | 123° |
| 2026-04-21 13:26 | -34.55280 | -58.42741 | 60 ft | 133 kts | 123° |
| 2026-04-21 13:26 | -34.55816 | -58.41781 | 38 ft | 127 kts | 123° |
| 2026-04-21 13:26 | -34.56201 | -58.41071 | 27 ft | 56 kts | 127° |
| 2026-04-21 13:26 | -34.56278 | -58.40937 | 26 ft | 4 kts | 125° |
| 2026-04-21 13:27 | -34.56311 | -58.40878 | 26 ft | 12 kts | 124° |
| 2026-04-21 13:27 | -34.56369 | -58.40774 | 26 ft | 15 kts | 124° |
| 2026-04-21 13:27 | -34.56386 | -58.40672 | 26 ft | 9 kts | 43° |
| 2026-04-21 13:27 | -34.56327 | -58.40684 | 26 ft | 10 kts | 324° |
| 2026-04-21 13:28 | -34.56269 | -58.40746 | 26 ft | 12 kts | 314° |
| 2026-04-21 13:28 | -34.56205 | -58.40822 | 26 ft | 12 kts | 318° |
| 2026-04-21 13:28 | -34.56162 | -58.40902 | 26 ft | 12 kts | 300° |
| 2026-04-21 13:28 | -34.56115 | -58.40983 | 26 ft | 7 kts | 306° |
| 2026-04-21 13:29 | -34.56079 | -58.41043 | 26 ft | 9 kts | 318° |
| 2026-04-21 13:29 | -34.56012 | -58.41051 | 26 ft | 10 kts | 354° |
| 2026-04-21 13:29 | -34.55939 | -58.41118 | 26 ft | 9 kts | 311° |
| 2026-04-21 13:29 | -34.55910 | -58.41159 | 26 ft | 9 kts | 310° |
| 2026-04-21 13:30 | -34.55884 | -58.41197 | 26 ft | 2 kts | 313° |
| 2026-04-21 13:30 | -34.55878 | -58.41200 | 26 ft | 1 kts | 5° |
| 2026-04-21 13:30 | -34.55864 | -58.41193 | 26 ft | 2 kts | 29° |
| 2026-04-21 13:30 | -34.55847 | -58.41179 | 26 ft | 3 kts | 39° |
| 2026-04-21 13:31 | -34.55842 | -58.41174 | 26 ft | 0 kts | 40° |